Аэропорт: Атырау. Атырау

ICAO: UATG

METAR:
2019/01/21 23:00
UATG 212300Z 15007MPS 5000 BR BKN027 M00/M00 Q1019 R14/CLRD70 NOSIG RMK QFE766/1021
METAR:
2019/01/21 18:18
TAF UATG 211701Z 2118/2218 17009MPS 3000 BR BKN010 TX01/2210Z TNM05/2204Z 
      TEMPO 2120/2205 0300 FZFG VV002 
      TEMPO 2209/2214 23008MPS -SHRA BKN004 BKN010CB 
     FM221400 36008MPS 4000 -SHSN BR BKN005 BKN020CB